createdAt,value
2022-08-31T00:00:13.119Z,6.27
2022-08-31T00:02:58.218Z,6.07
2022-08-31T00:05:24.891Z,6.17
2022-08-31T00:07:52.646Z,6.20
2022-08-31T00:10:22.296Z,7.30
2022-08-31T00:12:59.193Z,7.43
2022-08-31T00:15:26.697Z,6.10
2022-08-31T00:17:53.725Z,6.60
2022-08-31T00:20:33.193Z,6.03
2022-08-31T00:23:10.651Z,5.50
2022-08-31T00:25:39.355Z,6.13
2022-08-31T00:28:06.961Z,6.00
2022-08-31T00:30:34.129Z,5.50
2022-08-31T00:33:01.306Z,5.93
2022-08-31T00:35:29.639Z,5.57
2022-08-31T00:37:56.507Z,5.70
2022-08-31T00:40:23.762Z,5.37
2022-08-31T00:42:50.831Z,5.77
2022-08-31T00:45:17.749Z,6.13
2022-08-31T00:47:44.340Z,5.37
2022-08-31T00:50:14.586Z,6.63
2022-08-31T00:52:48.209Z,5.73
2022-08-31T00:55:21.096Z,5.63
2022-08-31T00:57:51.385Z,5.80
2022-08-31T01:00:23.947Z,5.80
2022-08-31T01:02:51.248Z,4.37
2022-08-31T01:05:18.459Z,5.43
2022-08-31T01:07:48.088Z,5.30
2022-08-31T01:10:16.911Z,5.17
2022-08-31T01:12:45.825Z,5.83
2022-08-31T01:15:14.578Z,5.60
2022-08-31T01:17:43.470Z,5.60
2022-08-31T01:20:49.137Z,5.53
2022-08-31T01:23:22.855Z,5.83
2022-08-31T01:25:52.206Z,5.13
2022-08-31T01:28:19.072Z,5.70
2022-08-31T01:31:08.940Z,6.03
2022-08-31T01:33:38.899Z,4.87
2022-08-31T01:36:07.844Z,5.10
2022-08-31T01:38:35.763Z,9.10
2022-08-31T01:41:03.580Z,4.90
2022-08-31T01:43:35.111Z,6.57
2022-08-31T01:46:03.473Z,4.73
2022-08-31T01:48:32.727Z,5.60
2022-08-31T01:51:02.622Z,5.00
2022-08-31T01:53:29.470Z,4.07
2022-08-31T01:55:56.154Z,6.27
2022-08-31T01:58:22.847Z,5.03
2022-08-31T02:00:49.579Z,5.60
2022-08-31T02:03:16.345Z,5.03
2022-08-31T02:05:43.094Z,4.97
2022-08-31T02:08:10.535Z,4.23
2022-08-31T02:10:37.855Z,4.93
2022-08-31T02:13:05.366Z,4.93
2022-08-31T02:15:38.129Z,4.60
2022-08-31T02:18:05.634Z,5.57
2022-08-31T02:20:32.204Z,5.33
2022-08-31T02:23:00.019Z,4.90
2022-08-31T02:25:26.599Z,5.47
2022-08-31T02:27:53.247Z,4.63
2022-08-31T02:30:20.012Z,8.10
2022-08-31T02:32:46.914Z,4.60
2022-08-31T02:35:13.647Z,5.27
2022-08-31T02:37:40.217Z,4.23
2022-08-31T02:40:12.057Z,4.77
2022-08-31T02:42:53.001Z,4.47
2022-08-31T02:45:24.103Z,4.43
2022-08-31T02:47:51.575Z,4.33
2022-08-31T02:50:24.954Z,4.90
2022-08-31T02:52:53.507Z,4.37
2022-08-31T02:55:22.164Z,4.57
2022-08-31T02:57:51.098Z,6.07
2022-08-31T03:00:24.387Z,5.27
2022-08-31T03:02:51.208Z,5.10
2022-08-31T03:05:18.878Z,4.53
2022-08-31T03:07:45.578Z,4.43
2022-08-31T03:10:14.037Z,4.33
2022-08-31T03:12:40.662Z,4.17
2022-08-31T03:15:08.946Z,4.20
2022-08-31T03:17:36.211Z,4.57
2022-08-31T03:20:05.990Z,4.00
2022-08-31T03:22:33.885Z,4.60
2022-08-31T03:25:01.014Z,4.70
2022-08-31T03:27:30.226Z,4.43
2022-08-31T03:29:58.383Z,4.93
2022-08-31T03:32:28.207Z,6.27
2022-08-31T03:34:56.258Z,4.33
2022-08-31T03:37:23.729Z,4.00
2022-08-31T03:39:51.223Z,5.70
2022-08-31T03:42:19.422Z,5.87
2022-08-31T03:44:47.439Z,4.60
2022-08-31T03:47:21.413Z,4.03
2022-08-31T03:49:50.192Z,5.73
2022-08-31T03:52:22.277Z,6.27
2022-08-31T03:54:59.205Z,4.50
2022-08-31T03:57:26.371Z,4.40
2022-08-31T03:59:55.607Z,4.23
2022-08-31T04:02:22.328Z,4.10
2022-08-31T04:05:09.914Z,4.50
2022-08-31T04:08:08.692Z,4.63
2022-08-31T04:10:46.017Z,4.70
2022-08-31T04:13:36.856Z,4.40
2022-08-31T04:16:23.652Z,5.17
2022-08-31T04:19:24.984Z,4.60
2022-08-31T04:22:01.786Z,5.90
2022-08-31T04:24:34.725Z,4.80
2022-08-31T04:27:01.350Z,4.97
2022-08-31T04:29:28.948Z,5.33
2022-08-31T04:31:55.523Z,4.97
2022-08-31T04:34:23.564Z,4.67
2022-08-31T04:36:50.347Z,4.50
2022-08-31T04:39:17.545Z,3.93
2022-08-31T04:41:44.794Z,7.37
2022-08-31T04:44:17.769Z,4.50
2022-08-31T04:46:47.452Z,4.10
2022-08-31T04:49:15.179Z,5.17
2022-08-31T04:51:42.170Z,3.70
2022-08-31T04:54:11.638Z,4.30
2022-08-31T04:56:43.181Z,4.07
2022-08-31T04:59:13.286Z,4.17
2022-08-31T05:01:51.784Z,4.30
2022-08-31T05:04:36.978Z,5.67
2022-08-31T05:07:03.799Z,4.57
2022-08-31T05:09:30.970Z,4.27
2022-08-31T05:11:58.070Z,4.37
2022-08-31T05:14:25.667Z,4.80
2022-08-31T05:17:01.960Z,6.40
2022-08-31T05:19:31.931Z,5.60
2022-08-31T05:21:58.885Z,4.47
2022-08-31T05:24:25.690Z,5.47
2022-08-31T05:26:55.914Z,4.67
2022-08-31T05:29:25.494Z,4.87
2022-08-31T05:32:07.939Z,6.20
2022-08-31T05:34:34.631Z,4.70
2022-08-31T05:37:01.375Z,4.37
2022-08-31T05:39:32.292Z,4.47
2022-08-31T05:41:59.470Z,4.23
2022-08-31T05:44:28.881Z,7.30
2022-08-31T05:47:03.574Z,4.23
2022-08-31T05:49:32.347Z,5.50
2022-08-31T05:52:00.322Z,4.87
2022-08-31T05:54:29.014Z,5.43
2022-08-31T05:57:00.978Z,6.50
2022-08-31T05:59:31.102Z,5.83
2022-08-31T06:01:59.128Z,5.60
2022-08-31T06:04:28.359Z,7.60
2022-08-31T06:06:54.982Z,6.13
2022-08-31T06:09:25.390Z,6.17
2022-08-31T06:11:54.120Z,6.47
2022-08-31T06:14:22.885Z,7.77
2022-08-31T06:16:50.638Z,6.83
2022-08-31T06:19:19.775Z,7.60
2022-08-31T06:21:50.848Z,6.90
2022-08-31T06:24:24.320Z,7.50
2022-08-31T06:26:58.284Z,6.83
2022-08-31T06:29:32.062Z,6.77
2022-08-31T06:32:00.543Z,7.23
2022-08-31T06:34:29.081Z,7.50
2022-08-31T06:37:02.813Z,8.03
2022-08-31T06:39:53.737Z,7.50
2022-08-31T06:42:35.373Z,9.50
2022-08-31T06:45:02.080Z,8.43
2022-08-31T06:47:48.864Z,10.40
2022-08-31T06:50:17.826Z,7.30
2022-08-31T06:52:45.362Z,7.87
2022-08-31T06:55:31.159Z,8.20
2022-08-31T06:58:20.442Z,8.50
2022-08-31T07:01:09.848Z,7.47
2022-08-31T07:04:00.645Z,8.47
2022-08-31T07:06:31.854Z,7.83
2022-08-31T07:09:01.866Z,7.67
2022-08-31T07:11:33.776Z,7.47
2022-08-31T07:14:04.115Z,7.47
2022-08-31T07:16:31.122Z,7.17
2022-08-31T07:19:01.365Z,8.40
2022-08-31T07:21:31.916Z,8.73
2022-08-31T07:24:01.791Z,8.40
2022-08-31T07:26:48.972Z,7.83
2022-08-31T07:29:22.531Z,7.67
2022-08-31T07:31:50.387Z,7.57
2022-08-31T07:34:29.663Z,7.53
2022-08-31T07:37:30.101Z,7.97
2022-08-31T07:40:16.375Z,7.17
2022-08-31T07:42:45.066Z,7.17
2022-08-31T07:45:22.624Z,8.10
2022-08-31T07:47:52.013Z,7.67
2022-08-31T07:50:21.577Z,8.17
2022-08-31T07:53:00.177Z,8.50
2022-08-31T07:55:47.832Z,8.40
2022-08-31T07:58:40.141Z,7.10
2022-08-31T08:01:07.534Z,8.17
2022-08-31T08:03:34.195Z,8.90
2022-08-31T08:06:19.662Z,7.30
2022-08-31T08:09:26.501Z,8.20
2022-08-31T08:12:20.214Z,8.23
2022-08-31T08:15:08.915Z,8.30
2022-08-31T08:17:58.395Z,8.70
2022-08-31T08:20:38.040Z,8.37
2022-08-31T08:23:15.032Z,9.50
2022-08-31T08:26:09.625Z,8.57
2022-08-31T08:29:08.522Z,8.53
2022-08-31T08:31:40.881Z,8.20
2022-08-31T08:34:08.398Z,7.93
2022-08-31T08:36:37.042Z,7.87
2022-08-31T08:39:07.713Z,7.20
2022-08-31T08:41:39.998Z,7.17
2022-08-31T08:44:18.048Z,7.50
2022-08-31T08:46:56.102Z,7.10
2022-08-31T08:49:28.675Z,7.73
2022-08-31T08:52:06.027Z,7.13
2022-08-31T08:54:38.606Z,8.80
2022-08-31T08:57:15.182Z,9.07
2022-08-31T08:59:44.852Z,8.53
2022-08-31T09:02:19.047Z,8.23
2022-08-31T09:05:18.809Z,8.73
2022-08-31T09:08:16.144Z,7.83
2022-08-31T09:10:45.506Z,7.83
2022-08-31T09:13:44.066Z,6.47
2022-08-31T09:16:56.151Z,6.83
2022-08-31T09:19:23.331Z,7.03
2022-08-31T09:21:53.254Z,6.43
2022-08-31T09:24:23.301Z,6.10
2022-08-31T09:27:19.333Z,5.53
2022-08-31T09:29:52.447Z,5.23
2022-08-31T09:32:26.231Z,4.90
2022-08-31T09:35:01.433Z,4.47
2022-08-31T09:37:31.011Z,5.40
2022-08-31T09:40:15.039Z,4.10
2022-08-31T09:42:43.644Z,4.03
2022-08-31T09:45:30.111Z,4.43
2022-08-31T09:48:01.119Z,3.77
2022-08-31T09:50:32.882Z,3.67
2022-08-31T09:53:28.511Z,3.70
2022-08-31T09:56:15.852Z,4.00
2022-08-31T09:58:51.298Z,3.40
2022-08-31T10:01:45.145Z,3.30
2022-08-31T10:04:20.493Z,3.13
2022-08-31T10:07:14.102Z,3.27
2022-08-31T10:09:48.377Z,2.83
2022-08-31T10:12:41.928Z,2.43
2022-08-31T10:15:20.479Z,2.70
2022-08-31T10:18:02.985Z,3.23
2022-08-31T10:20:39.520Z,2.90
2022-08-31T10:23:19.149Z,2.70
2022-08-31T10:25:54.561Z,3.27
2022-08-31T10:28:37.294Z,4.20
2022-08-31T10:31:07.453Z,4.30
2022-08-31T10:34:12.097Z,2.80
2022-08-31T10:36:40.659Z,2.80
2022-08-31T10:39:20.369Z,2.23
2022-08-31T10:41:49.413Z,2.77
2022-08-31T10:44:26.195Z,2.40
2022-08-31T10:46:58.923Z,3.30
2022-08-31T10:49:26.427Z,2.87
2022-08-31T10:52:20.077Z,2.60
2022-08-31T10:54:47.385Z,4.10
2022-08-31T10:57:39.214Z,2.60
2022-08-31T11:00:33.895Z,3.20
2022-08-31T11:03:40.313Z,2.23
2022-08-31T11:06:24.706Z,2.27
2022-08-31T11:09:21.879Z,2.27
2022-08-31T11:12:07.062Z,2.40
2022-08-31T11:15:09.729Z,2.53
2022-08-31T11:17:55.693Z,3.60
2022-08-31T11:20:52.086Z,4.87
2022-08-31T11:23:29.862Z,3.67
2022-08-31T11:26:14.814Z,2.60
2022-08-31T11:28:53.877Z,3.33
2022-08-31T11:31:24.793Z,6.37
2022-08-31T11:34:15.076Z,3.43
2022-08-31T11:37:01.109Z,2.93
2022-08-31T11:39:35.740Z,2.77
2022-08-31T11:42:24.098Z,3.23
2022-08-31T11:45:05.521Z,2.90
2022-08-31T11:47:37.742Z,2.50
2022-08-31T11:50:30.747Z,2.67
2022-08-31T11:53:00.155Z,2.53
2022-08-31T11:55:45.233Z,2.43
2022-08-31T11:58:20.883Z,2.77
2022-08-31T12:00:59.917Z,2.83
2022-08-31T12:03:39.669Z,2.73
2022-08-31T12:06:10.431Z,2.27
2022-08-31T12:08:52.314Z,2.50
2022-08-31T12:11:40.807Z,2.60
2022-08-31T12:14:37.928Z,2.70
2022-08-31T12:17:27.006Z,2.80
2022-08-31T12:20:23.743Z,2.97
2022-08-31T12:23:36.048Z,3.07
2022-08-31T12:26:05.673Z,3.43
2022-08-31T12:28:59.973Z,2.73
2022-08-31T12:31:26.752Z,2.50
2022-08-31T12:34:05.072Z,3.00
2022-08-31T12:36:34.449Z,2.40
2022-08-31T12:39:26.416Z,4.77
2022-08-31T12:41:55.435Z,4.73
2022-08-31T12:44:33.436Z,2.37
2022-08-31T12:47:29.976Z,2.50
2022-08-31T12:50:34.085Z,3.13
2022-08-31T12:53:18.925Z,2.83
2022-08-31T12:56:21.185Z,2.60
2022-08-31T12:59:11.489Z,3.20
2022-08-31T13:01:43.563Z,2.70
2022-08-31T13:04:11.084Z,3.20
2022-08-31T13:06:40.704Z,2.50
2022-08-31T13:09:07.621Z,2.50
2022-08-31T13:11:40.867Z,2.60
2022-08-31T13:14:25.125Z,2.10
2022-08-31T13:16:55.683Z,2.70
2022-08-31T13:19:29.439Z,3.07
2022-08-31T13:22:00.127Z,3.70
2022-08-31T13:24:30.853Z,3.13
2022-08-31T13:27:24.226Z,4.23
2022-08-31T13:29:52.035Z,2.57
2022-08-31T13:32:21.344Z,2.63
2022-08-31T13:34:48.145Z,3.50
2022-08-31T13:37:23.945Z,2.50
2022-08-31T13:39:50.613Z,2.10
2022-08-31T13:42:45.500Z,2.30
2022-08-31T13:45:40.645Z,2.60
2022-08-31T13:48:13.794Z,2.33
2022-08-31T13:50:52.850Z,2.10
2022-08-31T13:53:39.721Z,3.00
2022-08-31T13:56:41.629Z,2.27
2022-08-31T13:59:22.065Z,2.90
2022-08-31T14:01:58.832Z,3.23
2022-08-31T14:04:44.498Z,2.00
2022-08-31T14:07:16.983Z,2.30
2022-08-31T14:09:45.214Z,4.30
2022-08-31T14:12:36.601Z,3.13
2022-08-31T14:15:09.188Z,3.27
2022-08-31T14:18:24.074Z,2.50
2022-08-31T14:20:36.313Z,2.57
2022-08-31T14:23:28.010Z,3.43
2022-08-31T14:26:04.098Z,3.10
2022-08-31T14:28:41.162Z,2.30
2022-08-31T14:31:26.825Z,2.57
2022-08-31T14:33:55.923Z,2.43
2022-08-31T14:36:25.410Z,2.27
2022-08-31T14:38:54.137Z,3.10
2022-08-31T14:41:31.046Z,2.87
2022-08-31T14:44:06.888Z,2.23
2022-08-31T14:46:36.957Z,2.93
2022-08-31T14:49:05.260Z,2.40
2022-08-31T14:51:32.045Z,2.93
2022-08-31T14:53:58.609Z,2.60
2022-08-31T14:56:31.101Z,3.80
2022-08-31T14:59:11.035Z,2.30
2022-08-31T15:01:44.558Z,3.80
2022-08-31T15:04:16.142Z,1.87
2022-08-31T15:06:43.171Z,2.03
2022-08-31T15:09:10.116Z,2.23
2022-08-31T15:11:37.204Z,2.10
2022-08-31T15:14:07.500Z,2.37
2022-08-31T15:16:34.240Z,2.50
2022-08-31T15:19:02.042Z,3.23
2022-08-31T15:21:29.311Z,2.30
2022-08-31T15:23:55.906Z,3.07
2022-08-31T15:26:22.995Z,2.77
2022-08-31T15:28:52.424Z,2.47
2022-08-31T15:31:23.627Z,2.60
2022-08-31T15:33:53.795Z,3.23
2022-08-31T15:36:24.911Z,2.53
2022-08-31T15:38:57.060Z,2.40
2022-08-31T15:41:29.026Z,2.57
2022-08-31T15:43:56.010Z,3.30
2022-08-31T15:46:42.482Z,2.20
2022-08-31T15:49:10.380Z,2.30
2022-08-31T15:51:50.101Z,2.43
2022-08-31T15:54:22.594Z,2.47
2022-08-31T15:56:51.072Z,2.53
2022-08-31T15:59:17.627Z,3.83
2022-08-31T16:01:44.285Z,2.17
2022-08-31T16:04:16.106Z,2.50
2022-08-31T16:06:42.726Z,2.73
2022-08-31T16:09:09.618Z,2.60
2022-08-31T16:11:37.750Z,2.50
2022-08-31T16:14:05.147Z,2.33
2022-08-31T16:16:36.726Z,2.60
2022-08-31T16:19:05.021Z,4.70
2022-08-31T16:21:34.507Z,2.20
2022-08-31T16:24:03.649Z,2.13
2022-08-31T16:26:33.833Z,2.13
2022-08-31T16:29:01.971Z,2.20
2022-08-31T16:31:29.989Z,2.77
2022-08-31T16:33:56.966Z,2.20
2022-08-31T16:36:26.316Z,2.20
2022-08-31T16:38:56.724Z,2.33
2022-08-31T16:41:26.277Z,2.27
2022-08-31T16:44:18.496Z,3.80
2022-08-31T16:46:45.483Z,2.10
2022-08-31T16:49:30.600Z,2.50
2022-08-31T16:51:58.285Z,2.37
2022-08-31T16:54:27.537Z,2.67
2022-08-31T16:56:55.105Z,2.40
2022-08-31T16:59:21.706Z,2.40
2022-08-31T17:01:48.410Z,2.20
2022-08-31T17:04:41.107Z,3.60
2022-08-31T17:07:08.713Z,2.70
2022-08-31T17:09:35.277Z,3.63
2022-08-31T17:12:07.470Z,2.17
2022-08-31T17:14:43.147Z,2.93
2022-08-31T17:17:11.861Z,2.20
2022-08-31T17:19:42.031Z,2.13
2022-08-31T17:22:16.956Z,3.10
2022-08-31T17:24:46.985Z,2.13
2022-08-31T17:27:16.713Z,2.10
2022-08-31T17:29:47.953Z,4.13
2022-08-31T17:32:19.040Z,2.63
2022-08-31T17:34:49.502Z,2.27
2022-08-31T17:37:17.086Z,2.70
2022-08-31T17:39:45.128Z,2.07
2022-08-31T17:42:15.153Z,3.33
2022-08-31T17:44:44.778Z,2.70
2022-08-31T17:47:11.403Z,2.60
2022-08-31T17:49:42.105Z,2.13
2022-08-31T17:52:11.468Z,2.87
2022-08-31T17:54:41.958Z,3.03
2022-08-31T17:57:14.495Z,4.60
2022-08-31T17:59:46.538Z,3.10
2022-08-31T18:02:17.461Z,2.80
2022-08-31T18:04:44.317Z,2.20
2022-08-31T18:07:11.917Z,2.27
2022-08-31T18:09:40.883Z,3.03
2022-08-31T18:12:08.665Z,2.30
2022-08-31T18:14:38.031Z,2.30
2022-08-31T18:17:08.438Z,2.47
2022-08-31T18:19:35.217Z,2.30
2022-08-31T18:22:02.959Z,2.83
2022-08-31T18:24:35.191Z,2.53
2022-08-31T18:27:04.035Z,2.50
2022-08-31T18:29:34.433Z,1.80
2022-08-31T18:32:04.131Z,4.93
2022-08-31T18:34:33.221Z,2.27
2022-08-31T18:37:00.356Z,2.93
2022-08-31T18:39:50.700Z,2.13
2022-08-31T18:42:34.730Z,2.60
2022-08-31T18:45:18.023Z,2.50
2022-08-31T18:48:07.109Z,2.33
2022-08-31T18:50:36.905Z,3.20
2022-08-31T18:53:08.172Z,3.43
2022-08-31T18:55:40.811Z,2.00
2022-08-31T18:58:07.509Z,2.37
2022-08-31T19:00:34.417Z,2.60
2022-08-31T19:03:02.410Z,2.83
2022-08-31T19:05:29.637Z,2.50
2022-08-31T19:07:58.048Z,3.53
2022-08-31T19:10:25.387Z,2.47
2022-08-31T19:12:55.285Z,2.53
2022-08-31T19:15:25.526Z,2.37
2022-08-31T19:18:00.134Z,2.33
2022-08-31T19:20:28.825Z,2.13
2022-08-31T19:22:55.490Z,2.77
2022-08-31T19:25:22.527Z,2.33
2022-08-31T19:27:51.826Z,2.37
2022-08-31T19:30:23.270Z,2.07
2022-08-31T19:32:54.119Z,2.53
2022-08-31T19:35:21.260Z,2.00
2022-08-31T19:37:51.888Z,2.53
2022-08-31T19:40:19.266Z,3.33
2022-08-31T19:45:43.449Z,2.93
2022-08-31T19:48:12.870Z,2.43
2022-08-31T19:50:42.106Z,2.20
2022-08-31T19:53:14.018Z,2.87
2022-08-31T19:55:50.152Z,2.30
2022-08-31T19:58:19.072Z,2.60
2022-08-31T20:00:45.886Z,2.40
2022-08-31T20:03:15.482Z,2.93
2022-08-31T20:05:43.268Z,2.10
2022-08-31T20:08:10.506Z,2.60
2022-08-31T20:10:45.532Z,2.40
2022-08-31T20:13:12.983Z,2.30
2022-08-31T20:15:44.650Z,2.00
2022-08-31T20:18:12.492Z,4.43
2022-08-31T20:20:45.195Z,2.60
2022-08-31T20:23:16.320Z,1.97
2022-08-31T20:25:44.686Z,2.33
2022-08-31T20:28:11.692Z,2.40
2022-08-31T20:30:40.981Z,2.57
2022-08-31T20:33:08.282Z,2.20
2022-08-31T20:35:37.997Z,3.13
2022-08-31T20:38:06.087Z,3.73
2022-08-31T20:40:33.374Z,2.13
2022-08-31T20:43:03.004Z,2.47
2022-08-31T20:45:29.550Z,3.10
2022-08-31T20:48:14.731Z,3.93
2022-08-31T20:50:42.737Z,2.27
2022-08-31T20:53:25.073Z,2.10
2022-08-31T20:56:06.912Z,2.33
2022-08-31T20:58:33.539Z,2.63
2022-08-31T21:01:07.148Z,2.37
2022-08-31T21:03:34.342Z,5.17
2022-08-31T21:06:08.128Z,2.53
2022-08-31T21:08:38.265Z,2.90
2022-08-31T21:11:17.436Z,2.60
2022-08-31T21:13:45.547Z,2.23
2022-08-31T21:16:17.741Z,2.27
2022-08-31T21:18:48.679Z,2.60
2022-08-31T21:21:17.280Z,2.63
2022-08-31T21:23:45.736Z,2.70
2022-08-31T21:26:21.381Z,2.50
2022-08-31T21:28:53.153Z,2.67
2022-08-31T21:31:27.744Z,2.50
2022-08-31T21:33:59.129Z,2.50
2022-08-31T21:36:26.579Z,2.37
2022-08-31T21:38:55.174Z,3.83
2022-08-31T21:41:24.154Z,2.47
2022-08-31T21:43:51.058Z,2.83
2022-08-31T21:46:21.639Z,2.60
2022-08-31T21:48:50.158Z,2.87
2022-08-31T21:51:23.107Z,2.10
2022-08-31T21:53:54.498Z,2.00
2022-08-31T21:56:24.971Z,2.70
2022-08-31T21:58:51.778Z,2.73
2022-08-31T22:01:19.625Z,2.93
2022-08-31T22:03:54.151Z,2.93
2022-08-31T22:06:27.614Z,2.73
2022-08-31T22:09:00.019Z,2.20
2022-08-31T22:11:29.981Z,2.57
2022-08-31T22:13:58.958Z,2.77
2022-08-31T22:16:26.318Z,2.60
2022-08-31T22:19:03.032Z,3.30
2022-08-31T22:21:34.673Z,2.63
2022-08-31T22:24:05.528Z,2.47
2022-08-31T22:26:35.800Z,2.40
2022-08-31T22:29:05.282Z,2.33
2022-08-31T22:31:36.571Z,2.40
2022-08-31T22:34:05.126Z,2.67
2022-08-31T22:36:32.516Z,2.27
2022-08-31T22:39:03.273Z,2.90
2022-08-31T22:41:32.357Z,2.77
2022-08-31T22:43:59.238Z,2.53
2022-08-31T22:46:25.925Z,2.47
2022-08-31T22:48:52.598Z,2.60
2022-08-31T22:51:20.464Z,2.70
2022-08-31T22:53:47.205Z,2.27
2022-08-31T22:56:25.906Z,3.57
2022-08-31T22:58:58.142Z,3.13
2022-08-31T23:01:34.472Z,2.40
2022-08-31T23:04:06.510Z,5.47
2022-08-31T23:06:35.801Z,2.33
2022-08-31T23:09:05.638Z,2.63
2022-08-31T23:11:32.320Z,2.70
2022-08-31T23:14:04.239Z,2.70
2022-08-31T23:16:39.773Z,2.53
2022-08-31T23:19:10.642Z,2.77
2022-08-31T23:21:46.005Z,2.87
2022-08-31T23:24:21.566Z,2.63
2022-08-31T23:26:49.948Z,2.60
2022-08-31T23:29:19.834Z,2.40
2022-08-31T23:31:48.566Z,2.87
2022-08-31T23:34:16.565Z,4.40
2022-08-31T23:36:50.271Z,2.80
2022-08-31T23:39:19.325Z,2.30
2022-08-31T23:41:46.918Z,3.53
2022-08-31T23:44:14.533Z,2.50
2022-08-31T23:46:43.200Z,4.47
2022-08-31T23:49:13.339Z,2.87
2022-08-31T23:51:39.955Z,2.63
2022-08-31T23:54:08.081Z,2.50
2022-08-31T23:56:37.407Z,2.20
2022-08-31T23:59:09.434Z,2.70
